Time;durP1;ratioP1;P1;durP2;ratioP2;P2;SDS_P1;SDS_P2;PMS_P1;PMS_P2;Temp;Humidity;BMP_temperature;BMP_pressure;BME280_temperature;BME280_humidity;BME280_pressure;Samples;Min_cycle;Max_cycle;Signal;HPM_P1;HPM_P2
2021/06/22 00:05:03;;;;;;;1999.90;999.90;;;;;;;15.85;100.00;97795.93;3715578;79;42881;-19
2021/06/22 00:10:12;;;;;;;1999.90;999.90;;;;;;;15.82;100.00;97807.69;3747459;78;43727;-19
2021/06/22 00:15:21;;;;;;;1999.90;999.90;;;;;;;15.77;100.00;97823.79;3706689;79;44035;-19
2021/06/22 00:25:38;;;;;;;1999.90;999.90;;;;;;;15.81;100.00;97866.61;3967842;73;27631;-19
2021/06/22 00:30:44;;;;;;;1999.90;999.90;;;;;;;15.74;100.00;97888.88;3920723;75;44023;-21
2021/06/22 00:35:50;;;;;;;1999.90;999.90;;;;;;;15.72;100.00;97897.20;3921673;75;44048;-21
2021/06/22 00:40:57;;;;;;;1999.90;999.90;;;;;;;15.72;100.00;97907.25;3924128;75;43262;-20
2021/06/22 00:46:04;;;;;;;1999.90;999.90;;;;;;;15.67;100.00;97913.30;3933704;75;43353;-21
2021/06/22 00:51:11;;;;;;;1999.90;999.90;;;;;;;15.67;100.00;97921.95;3927484;75;44057;-21
2021/06/22 00:56:18;;;;;;;1999.90;999.90;;;;;;;15.67;100.00;97937.74;3924524;74;44169;-23
2021/06/22 01:01:24;;;;;;;1999.90;999.90;;;;;;;15.68;100.00;97931.27;3923660;75;44044;-23
2021/06/22 01:06:31;;;;;;;1999.90;999.90;;;;;;;15.63;100.00;97930.22;3920425;75;43576;-23
2021/06/22 01:11:39;;;;;;;1999.90;999.90;;;;;;;15.59;100.00;97913.48;3922077;75;26811;-23
2021/06/22 01:16:47;;;;;;;1999.90;999.90;;;;;;;15.52;100.00;97915.36;3920049;75;43713;-23
2021/06/22 01:21:53;;;;;;;1999.90;999.90;;;;;;;15.54;100.00;97896.98;3920878;74;43999;-23
2021/06/22 01:27:01;;;;;;;1999.90;999.90;;;;;;;15.49;100.00;97903.04;3889768;74;26436;-22
2021/06/22 01:32:10;;;;;;;1999.90;999.90;;;;;;;15.45;100.00;97924.02;3908720;75;43017;-23
2021/06/22 01:37:18;;;;;;;1999.90;999.90;;;;;;;15.40;100.00;97918.67;3910349;75;26356;-23
2021/06/22 01:47:40;;;;;;;1999.90;999.90;;;;;;;15.41;100.00;97900.49;3967351;73;28426;-21
2021/06/22 01:52:48;;;;;;;1999.90;999.90;;;;;;;15.23;100.00;97903.78;3917441;74;44446;-23
2021/06/22 01:57:56;;;;;;;1999.90;999.90;;;;;;;15.22;100.00;97917.89;3921177;75;43677;-20
2021/06/22 02:03:04;;;;;;;1999.90;999.90;;;;;;;15.14;100.00;97914.52;3897518;75;26341;-20
2021/06/22 02:08:10;;;;;;;1999.90;999.90;;;;;;;15.17;100.00;97919.01;3908470;75;43735;-21
2021/06/22 02:13:17;;;;;;;1999.90;999.90;;;;;;;15.16;100.00;97931.42;3914772;75;44161;-21
2021/06/22 02:18:25;;;;;;;1999.90;999.90;;;;;;;15.14;100.00;97944.36;3916035;75;26348;-21
2021/06/22 02:23:35;;;;;;;1999.90;999.90;;;;;;;15.08;100.00;97936.00;3881167;74;43673;-20
2021/06/22 02:28:41;;;;;;;1999.90;999.90;;;;;;;15.05;100.00;97918.77;3918732;75;44059;-20
2021/06/22 02:33:48;;;;;;;1999.90;999.90;;;;;;;15.07;100.00;97918.05;3917846;74;44486;-23
2021/06/22 02:38:55;;;;;;;1999.90;999.90;;;;;;;15.04;100.00;97917.09;3933561;74;44003;-23
2021/06/22 02:44:02;;;;;;;1999.90;999.90;;;;;;;15.02;100.00;97920.52;3920965;75;43763;-23
2021/06/22 02:49:09;;;;;;;1999.90;999.90;;;;;;;15.00;100.00;97923.13;3886419;75;26472;-23
2021/06/22 02:54:16;;;;;;;1999.90;999.90;;;;;;;15.05;100.00;97931.51;3908010;75;44020;-24
2021/06/22 02:59:23;;;;;;;1999.90;999.90;;;;;;;15.04;100.00;97930.66;3892601;75;43722;-23
2021/06/22 03:04:30;;;;;;;1999.90;999.90;;;;;;;15.01;100.00;97922.09;3899784;75;43657;-23
2021/06/22 03:09:37;;;;;;;1999.90;999.90;;;;;;;14.97;100.00;97922.17;3897335;74;42902;-23
2021/06/22 03:14:45;;;;;;;1999.90;999.90;;;;;;;14.94;100.00;97917.98;3903728;75;43670;-19
2021/06/22 03:19:54;;;;;;;1999.90;999.90;;;;;;;14.92;100.00;97918.70;3760025;78;26761;-20
2021/06/22 03:25:02;;;;;;;1999.90;999.90;;;;;;;14.86;100.00;97937.98;3912630;75;43101;-20
2021/06/22 03:30:12;;;;;;;1999.90;999.90;;;;;;;14.85;100.00;97938.19;3911223;75;44016;-20
2021/06/22 03:35:21;;;;;;;1999.90;999.90;;;;;;;14.90;100.00;97951.47;3886708;75;43365;-21
2021/06/22 03:40:29;;;;;;;1999.90;999.90;;;;;;;14.89;100.00;97967.92;3892326;75;43420;-21
2021/06/22 03:45:38;;;;;;;1999.90;999.90;;;;;;;14.88;100.00;97966.24;3907756;74;44206;-21
2021/06/22 03:50:46;;;;;;;1999.90;999.90;;;;;;;14.89;100.00;97973.34;3899278;74;42951;-21
2021/06/22 03:55:53;;;;;;;1999.90;999.90;;;;;;;14.85;100.00;97991.08;3906783;74;43433;-22
2021/06/22 04:01:16;;;;;;;1999.90;999.90;;;;;;;14.83;100.00;97995.85;3902037;75;26327;-19
2021/06/22 04:06:22;;;;;;;1999.90;999.90;;;;;;;14.70;100.00;97986.59;3890959;75;44622;-21
2021/06/22 04:11:38;;;;;;;1999.90;999.90;;;;;;;14.75;100.00;97980.07;3899235;75;26914;-20
2021/06/22 04:16:45;;;;;;;1999.90;999.90;;;;;;;14.75;100.00;97986.85;3899118;75;43674;-21
2021/06/22 04:21:52;;;;;;;1999.90;999.90;;;;;;;14.71;100.00;97990.98;3908032;75;43665;-19
2021/06/22 04:27:12;;;;;;;1999.90;999.90;;;;;;;14.62;100.00;97992.97;3903696;75;26801;-21
2021/06/22 04:32:18;;;;;;;1999.90;999.90;;;;;;;14.61;100.00;97998.61;3888599;75;44189;-20
2021/06/22 04:37:24;;;;;;;1999.90;999.90;;;;;;;14.46;100.00;98004.13;3911165;75;43284;-20
2021/06/22 04:42:30;;;;;;;1999.90;999.90;;;;;;;14.39;100.00;98010.85;3896872;75;43223;-20
2021/06/22 04:47:37;;;;;;;1999.90;999.90;;;;;;;14.21;100.00;98010.47;3916050;75;44854;-20
2021/06/22 04:52:43;;;;;;;1999.90;999.90;;;;;;;14.25;100.00;98017.19;3932593;75;43697;-20
2021/06/22 04:57:49;;;;;;;1999.90;999.90;;;;;;;14.17;100.00;98008.14;3914345;75;44077;-19
2021/06/22 05:02:56;;;;;;;1999.90;999.90;;;;;;;14.24;100.00;98010.09;3930476;75;44078;-20
2021/06/22 05:08:02;;;;;;;1999.90;999.90;;;;;;;14.06;100.00;98014.61;3926422;75;44398;-22
2021/06/22 05:13:08;;;;;;;1999.90;999.90;;;;;;;14.00;100.00;98021.11;3921023;74;44074;-22
2021/06/22 05:18:15;;;;;;;1999.90;999.90;;;;;;;13.99;100.00;98017.25;3928008;75;43715;-19
2021/06/22 05:23:22;;;;;;;1999.90;999.90;;;;;;;13.98;100.00;98023.70;3930044;75;44086;-19
2021/06/22 05:28:28;;;;;;;1999.90;999.90;;;;;;;13.93;100.00;98028.88;3918858;75;44711;-19
2021/06/22 05:33:34;;;;;;;1999.90;999.90;;;;;;;13.82;100.00;98029.67;3916935;75;43352;-19
2021/06/22 05:38:40;;;;;;;1999.90;999.90;;;;;;;13.81;100.00;98021.26;3928236;75;44058;-19
2021/06/22 05:43:46;;;;;;;1999.90;999.90;;;;;;;13.79;100.00;98007.56;3933677;75;43428;-20
2021/06/22 05:48:52;;;;;;;1999.90;999.90;;;;;;;13.79;100.00;98013.84;3933351;74;44063;-21
2021/06/22 05:53:58;;;;;;;1999.90;999.90;;;;;;;13.88;100.00;98011.82;3936865;75;44004;-20
2021/06/22 05:59:04;;;;;;;1999.90;999.90;;;;;;;13.97;100.00;98013.89;3935535;75;43456;-20
2021/06/22 06:04:10;;;;;;;1999.90;999.90;;;;;;;14.14;100.00;98017.19;3905857;75;44085;-20
2021/06/22 06:09:16;;;;;;;1999.90;999.90;;;;;;;14.12;100.00;98020.59;3940628;75;43760;-20
2021/06/22 06:14:22;;;;;;;1999.90;999.90;;;;;;;14.13;100.00;98035.32;3941803;75;43393;-20
2021/06/22 06:19:28;;;;;;;1999.90;999.90;;;;;;;14.13;100.00;98039.88;3939800;75;43352;-20
2021/06/22 06:24:34;;;;;;;1999.90;999.90;;;;;;;14.17;100.00;98065.56;3932680;75;44063;-20
2021/06/22 06:29:48;;;;;;;1999.90;999.90;;;;;;;14.25;100.00;98053.77;3940211;75;44556;-20
2021/06/22 06:34:51;;;;;;;1999.90;999.90;;;;;;;14.24;100.00;98058.33;3942828;75;43408;-21
2021/06/22 06:39:57;;;;;;;1999.90;999.90;;;;;;;14.32;100.00;98062.28;3944507;75;44047;-21
2021/06/22 06:45:04;;;;;;;1999.90;999.90;;;;;;;14.41;100.00;98063.49;3939584;75;44536;-21
2021/06/22 06:50:12;;;;;;;1999.90;999.90;;;;;;;14.54;100.00;98077.16;3954101;74;43440;-21
2021/06/22 06:55:27;;;;;;;1999.90;999.90;;;;;;;14.57;100.00;98093.55;3961265;74;43447;-21
2021/06/22 07:00:36;;;;;;;1999.90;999.90;;;;;;;14.66;100.00;98099.15;3958035;74;44097;-21
2021/06/22 07:05:42;;;;;;;1999.90;999.90;;;;;;;14.85;100.00;98103.09;3961751;74;44488;-21
2021/06/22 07:10:48;;;;;;;1999.90;999.90;;;;;;;14.91;100.00;98093.33;3967192;74;44074;-21
2021/06/22 07:15:54;;;;;;;1999.90;999.90;;;;;;;15.04;100.00;98106.98;3954505;74;43681;-21
2021/06/22 07:21:05;;;;;;;1999.90;999.90;;;;;;;15.24;100.00;98112.55;3951653;74;44620;-21
2021/06/22 07:26:12;;;;;;;1999.90;999.90;;;;;;;15.34;100.00;98118.99;3948006;74;44450;-22
2021/06/22 07:31:17;;;;;;;1999.90;999.90;;;;;;;15.33;100.00;98111.89;3965038;74;44062;-21
2021/06/22 07:36:24;;;;;;;1999.90;999.90;;;;;;;15.23;100.00;98105.95;3960617;74;43685;-21
2021/06/22 07:41:30;;;;;;;1999.90;999.90;;;;;;;15.26;100.00;98113.70;3944131;74;44034;-21
2021/06/22 07:46:36;;;;;;;1999.90;999.90;;;;;;;15.36;100.00;98112.81;3951911;74;43379;-21
2021/06/22 07:51:42;;;;;;;1999.90;999.90;;;;;;;15.60;100.00;98118.80;3857867;75;43722;-21
2021/06/22 07:56:48;;;;;;;1999.90;999.90;;;;;;;15.56;100.00;98113.47;3863934;75;43715;-21
2021/06/22 08:01:55;;;;;;;1999.90;999.90;;;;;;;15.74;100.00;98124.30;3855972;75;43010;-21
2021/06/22 08:07:01;;;;;;;1999.90;999.90;;;;;;;15.93;100.00;98122.23;3853531;75;43445;-22
2021/06/22 08:12:09;;;;;;;1999.90;999.90;;;;;;;15.82;100.00;98122.25;3858671;75;43695;-21
2021/06/22 08:17:14;;;;;;;1999.90;999.90;;;;;;;15.54;100.00;98123.16;3854141;75;44043;-21
2021/06/22 08:22:20;;;;;;;1999.90;999.90;;;;;;;15.68;100.00;98126.80;3864122;75;44690;-21
2021/06/22 08:27:27;;;;;;;1999.90;999.90;;;;;;;15.92;100.00;98124.63;3867429;75;44514;-21
2021/06/22 08:32:32;;;;;;;1999.90;999.90;;;;;;;15.98;100.00;98129.23;3853043;75;42986;-22
2021/06/22 08:37:39;;;;;;;1999.90;999.90;;;;;;;16.05;100.00;98131.16;3861381;75;43609;-22
2021/06/22 08:42:45;;;;;;;1999.90;999.90;;;;;;;15.97;100.00;98128.91;3846104;75;43886;-22
2021/06/22 08:47:52;;;;;;;1999.90;999.90;;;;;;;16.01;100.00;98126.12;3864720;75;44231;-21
2021/06/22 08:52:58;;;;;;;1999.90;999.90;;;;;;;16.25;100.00;98132.05;3899503;75;43267;-22
2021/06/22 08:58:05;;;;;;;1999.90;999.90;;;;;;;16.61;100.00;98141.73;3909146;75;43201;-22
2021/06/22 09:03:14;;;;;;;1999.90;999.90;;;;;;;16.90;100.00;98141.00;3917754;75;44086;-21
2021/06/22 09:08:23;;;;;;;1999.90;999.90;;;;;;;16.98;100.00;98135.09;3907771;75;43988;-22
2021/06/22 09:13:30;;;;;;;1999.90;999.90;;;;;;;17.01;100.00;98121.04;3915042;75;44035;-22
2021/06/22 09:18:39;;;;;;;1999.90;999.90;;;;;;;16.68;100.00;98131.38;3911246;75;43693;-22
2021/06/22 09:23:47;;;;;;;1999.90;999.90;;;;;;;16.47;100.00;98138.67;3891605;75;43690;-22
2021/06/22 09:28:56;;;;;;;1999.90;999.90;;;;;;;16.47;100.00;98141.39;3907189;75;43689;-21
2021/06/22 09:34:02;;;;;;;1999.90;999.90;;;;;;;16.75;100.00;98137.67;3900471;75;43709;-23
2021/06/22 09:39:09;;;;;;;1999.90;999.90;;;;;;;16.59;100.00;98128.86;3889621;75;43728;-22
2021/06/22 09:44:17;;;;;;;1999.90;999.90;;;;;;;16.74;100.00;98140.90;3901199;75;42705;-20
2021/06/22 09:49:29;;;;;;;1999.90;999.90;;;;;;;16.85;100.00;98148.12;3897470;75;43291;-20
2021/06/22 09:54:38;;;;;;;1999.90;999.90;;;;;;;16.98;100.00;98152.78;3887985;76;43225;-20
2021/06/22 09:59:51;;;;;;;1999.90;999.90;;;;;;;16.94;100.00;98150.97;3883346;75;44043;-20
2021/06/22 10:04:58;;;;;;;1999.90;999.90;;;;;;;17.27;100.00;98152.01;3876301;74;44122;-20
2021/06/22 10:10:08;;;;;;;1999.90;999.90;;;;;;;17.33;100.00;98160.71;3880024;76;43768;-22
2021/06/22 10:15:16;;;;;;;1999.90;999.90;;;;;;;17.41;100.00;98151.77;3816149;77;44072;-22
2021/06/22 10:20:23;;;;;;;1999.90;999.90;;;;;;;17.62;100.00;98156.67;3819794;77;43996;-22
2021/06/22 10:30:42;;;;;;;1999.90;999.90;;;;;;;18.05;100.00;98163.45;4002291;73;27318;-19
2021/06/22 10:35:48;;;;;;;1999.90;999.90;;;;;;;17.39;100.00;98177.55;3923094;75;43315;-22
2021/06/22 10:40:55;;;;;;;1999.90;999.90;;;;;;;17.22;100.00;98182.09;3928374;75;43425;-22
2021/06/22 10:46:05;;;;;;;1999.90;999.90;;;;;;;17.19;100.00;98177.56;3921436;75;43377;-22
2021/06/22 10:51:30;;;;;;;1999.90;999.90;;;;;;;17.08;100.00;98181.77;3919148;75;44610;-22
2021/06/22 11:02:05;;;;;;;1999.90;999.90;;;;;;;17.24;100.00;98175.88;3970419;73;27469;-19
2021/06/22 11:07:19;;;;;;;1999.90;999.90;;;;;;;17.05;100.00;98183.54;3799093;76;43154;-21
2021/06/22 11:12:26;;;;;;;1999.90;999.90;;;;;;;17.43;100.00;98177.45;3935552;75;43592;-22
2021/06/22 11:23:16;;;;;;;1999.90;999.90;;;;;;;17.26;100.00;98179.77;3985203;73;27279;-19
2021/06/22 11:28:24;;;;;;;1999.90;999.90;;;;;;;17.57;100.00;98182.34;3943966;73;44728;-22
2021/06/22 11:33:43;;;;;;;1999.90;999.90;;;;;;;17.67;100.00;98182.73;3927402;74;44215;-21
2021/06/22 11:39:15;;;;;;;1999.90;999.90;;;;;;;17.68;100.00;98172.69;3921186;74;43753;-22
2021/06/22 11:44:28;;;;;;;1999.90;999.90;;;;;;;17.56;100.00;98167.05;3928865;73;44087;-22
2021/06/22 11:55:22;;;;;;;1999.90;999.90;;;;;;;18.02;100.00;98162.55;3911520;74;26422;-65
2021/06/22 12:00:32;;;;;;;1999.90;999.90;;;;;;;18.02;100.00;98161.18;3914430;74;44464;-65
2021/06/22 12:05:39;;;;;;;1999.90;999.90;;;;;;;18.38;100.00;98167.08;3921879;75;44064;-65
2021/06/22 12:10:49;;;;;;;1999.90;999.90;;;;;;;18.45;100.00;98163.27;3929838;74;43391;-65
2021/06/22 12:15:56;;;;;;;1999.90;999.90;;;;;;;17.83;100.00;98171.89;3922392;74;44051;-65
2021/06/22 12:21:05;;;;;;;1999.90;999.90;;;;;;;18.05;100.00;98169.45;3932962;74;43730;-66
2021/06/22 12:26:13;;;;;;;1999.90;999.90;;;;;;;17.64;100.00;98174.16;3913976;75;43028;-66
2021/06/22 12:31:19;;;;;;;1999.90;999.90;;;;;;;17.90;100.00;98176.50;3920318;75;44083;-66
2021/06/22 12:36:25;;;;;;;1999.90;999.90;;;;;;;18.14;100.00;98174.95;3927282;74;43388;-66
2021/06/22 12:41:37;;;;;;;1999.90;999.90;;;;;;;18.24;100.00;98179.41;3918765;74;44008;-66
2021/06/22 12:46:44;;;;;;;1999.90;999.90;;;;;;;18.27;100.00;98183.62;3919282;74;44269;-67
2021/06/22 12:51:52;;;;;;;1999.90;999.90;;;;;;;18.16;100.00;98190.06;3804410;76;44070;-66
2021/06/22 12:57:01;;;;;;;1999.90;999.90;;;;;;;18.00;100.00;98190.54;3921135;75;43693;-71
2021/06/22 13:02:09;;;;;;;1999.90;999.90;;;;;;;18.57;100.00;98190.70;3929663;74;43289;-65
2021/06/22 13:07:18;;;;;;;1999.90;999.90;;;;;;;19.00;99.89;98183.70;3922842;74;43350;-66
2021/06/22 13:12:27;;;;;;;1999.90;999.90;;;;;;;19.22;98.48;98184.70;3939128;74;43770;-66
2021/06/22 13:17:34;;;;;;;1999.90;999.90;;;;;;;19.25;98.80;98186.97;3914113;74;44560;-67
2021/06/22 13:22:43;;;;;;;1999.90;999.90;;;;;;;18.85;96.68;98184.53;3927463;75;44494;-73
2021/06/22 13:27:54;;;;;;;1999.90;999.90;;;;;;;18.84;99.07;98178.77;3925689;75;43694;-66
2021/06/22 13:33:01;;;;;;;1999.90;999.90;;;;;;;18.65;99.58;98188.21;3922946;75;43969;-68
2021/06/22 13:38:09;;;;;;;1999.90;999.90;;;;;;;18.65;100.00;98190.94;3924088;74;43745;-68
2021/06/22 13:43:18;;;;;;;1999.90;999.90;;;;;;;18.66;100.00;98193.98;3925179;75;43684;-65
2021/06/22 13:48:30;;;;;;;1999.90;999.90;;;;;;;18.75;97.09;98200.88;3858270;74;43412;-66
2021/06/22 13:53:39;;;;;;;1999.90;999.90;;;;;;;18.53;96.86;98198.15;3820013;77;44097;-68
2021/06/22 13:58:46;;;;;;;1999.90;999.90;;;;;;;18.73;97.36;98195.31;3836858;77;44473;-67
2021/06/22 14:03:58;;;;;;;1999.90;999.90;;;;;;;18.80;97.74;98202.94;3842957;77;43386;-67
2021/06/22 14:09:06;;;;;;;1999.90;999.90;;;;;;;18.99;95.61;98199.80;3844784;77;44020;-67
2021/06/22 14:14:15;;;;;;;1999.90;999.90;;;;;;;19.14;93.08;98202.70;3847736;77;44072;-67
2021/06/22 14:19:23;;;;;;;1999.90;999.90;;;;;;;19.32;93.53;98206.88;3916028;74;43371;-66
2021/06/22 14:24:31;;;;;;;1999.90;999.90;;;;;;;19.85;88.59;98209.63;3774118;78;43723;-67
2021/06/22 14:29:42;;;;;;;1999.90;999.90;;;;;;;20.14;88.85;98207.21;3768136;77;43097;-67
2021/06/22 14:34:58;;;;;;;1999.90;999.90;;;;;;;20.20;89.23;98208.19;3840431;77;43983;-66
2021/06/22 14:40:01;;;;;;;1999.90;999.90;;;;;;;20.73;87.80;98205.83;3839930;77;43377;-66
2021/06/22 14:45:13;;;;;;;1999.90;999.90;;;;;;;20.96;86.20;98204.26;3833680;75;26326;-67
2021/06/22 14:50:20;;;;;;;1999.90;999.90;;;;;;;21.03;86.24;98204.45;3769205;77;43529;-66
2021/06/22 14:55:29;;;;;;;1999.90;999.90;;;;;;;21.30;86.43;98204.55;3840020;75;44034;-67
2021/06/22 15:00:38;;;;;;;1999.90;999.90;;;;;;;20.75;88.16;98211.94;3841792;76;44094;-66
2021/06/22 15:05:46;;;;;;;1999.90;999.90;;;;;;;20.58;85.82;98202.97;3827526;76;44444;-66
2021/06/22 15:10:55;;;;;;;1999.90;999.90;;;;;;;20.42;88.07;98208.56;3779971;77;43996;-66
2021/06/22 15:16:02;;;;;;;1999.90;999.90;;;;;;;20.53;86.59;98212.39;3839230;77;43532;-66
2021/06/22 15:21:08;;;;;;;1999.90;999.90;;;;;;;20.70;85.28;98211.21;3825486;77;44103;-67
2021/06/22 15:26:14;;;;;;;1999.90;999.90;;;;;;;20.94;84.55;98219.53;3832741;75;44024;-66
2021/06/22 15:31:44;;;;;;;1999.90;999.90;;;;;;;20.81;83.96;98215.10;3836476;77;44112;-67
2021/06/22 15:36:51;;;;;;;1999.90;999.90;;;;;;;20.67;82.63;98214.95;3841508;77;44059;-67
2021/06/22 15:41:59;;;;;;;1999.90;999.90;;;;;;;20.93;82.69;98224.73;3920457;75;45725;-67
2021/06/22 15:47:06;;;;;;;1999.90;999.90;;;;;;;20.69;82.45;98215.56;3906142;74;44116;-67
2021/06/22 15:52:12;;;;;;;1999.90;999.90;;;;;;;20.24;86.80;98217.63;3920431;75;43436;-67
2021/06/22 15:57:18;;;;;;;1999.90;999.90;;;;;;;20.43;86.43;98228.53;3914437;74;44469;-67
2021/06/22 16:02:24;;;;;;;1999.90;999.90;;;;;;;20.62;86.50;98231.56;3915643;75;44016;-67
2021/06/22 16:07:30;;;;;;;1999.90;999.90;;;;;;;20.86;86.37;98232.20;3839738;75;44065;-67
2021/06/22 16:12:36;;;;;;;1999.90;999.90;;;;;;;20.67;83.05;98224.53;3814539;76;43976;-67
2021/06/22 16:17:43;;;;;;;1999.90;999.90;;;;;;;20.59;87.03;98239.38;3921215;75;43437;-67
2021/06/22 16:22:50;;;;;;;1999.90;999.90;;;;;;;20.66;86.60;98238.77;3829069;75;44021;-67
2021/06/22 16:27:56;;;;;;;1999.90;999.90;;;;;;;20.60;85.55;98243.78;3820807;76;43692;-67
2021/06/22 16:33:02;;;;;;;1999.90;999.90;;;;;;;20.51;86.96;98229.61;3844116;77;44494;-67
2021/06/22 16:38:10;;;;;;;1999.90;999.90;;;;;;;20.39;87.24;98236.38;3847916;76;44719;-66
2021/06/22 16:43:19;;;;;;;1999.90;999.90;;;;;;;20.50;85.03;98244.87;3824125;75;44038;-67
2021/06/22 16:48:27;;;;;;;1999.90;999.90;;;;;;;20.66;85.67;98247.50;3809950;75;43140;-67
2021/06/22 16:53:35;;;;;;;1999.90;999.90;;;;;;;20.39;87.95;98256.07;3824294;77;43033;-67
2021/06/22 16:58:44;;;;;;;1999.90;999.90;;;;;;;20.41;89.10;98258.88;3922706;74;44111;-68
2021/06/22 17:03:53;;;;;;;1999.90;999.90;;;;;;;20.50;88.71;98265.39;3908301;74;43959;-66
2021/06/22 17:09:01;;;;;;;1999.90;999.90;;;;;;;20.59;89.33;98274.95;3909731;75;44009;-65
2021/06/22 17:14:09;;;;;;;1999.90;999.90;;;;;;;20.54;89.50;98279.75;3915581;75;43983;-66
2021/06/22 17:19:19;;;;;;;1999.90;999.90;;;;;;;20.31;90.07;98273.63;3930414;74;43502;-64
2021/06/22 17:24:29;;;;;;;1999.90;999.90;;;;;;;20.30;90.95;98275.50;3916486;75;43473;-68
2021/06/22 17:29:39;;;;;;;1999.90;999.90;;;;;;;20.17;91.33;98280.61;3920329;75;43431;-67
2021/06/22 17:34:48;;;;;;;1999.90;999.90;;;;;;;20.21;91.54;98269.22;3911990;74;44543;-67
2021/06/22 17:39:56;;;;;;;1999.90;999.90;;;;;;;19.86;92.31;98276.94;3930023;74;43375;-69
2021/06/22 17:45:06;;;;;;;1999.90;999.90;;;;;;;19.78;93.86;98283.19;3918238;75;43691;-65
2021/06/22 17:50:15;;;;;;;1999.90;999.90;;;;;;;19.66;94.47;98285.29;3918089;74;43923;-65
2021/06/22 18:00:37;;;;;;;1999.90;999.90;;;;;;;19.32;97.08;98299.75;3956756;73;28360;-18
2021/06/22 18:05:43;;;;;;;1999.90;999.90;;;;;;;19.13;97.42;98299.34;3925153;74;44379;-23
2021/06/22 18:10:50;;;;;;;1999.90;999.90;;;;;;;19.04;98.27;98306.43;3913981;75;43434;-23
2021/06/22 18:15:56;;;;;;;1999.90;999.90;;;;;;;18.93;98.22;98319.38;3914346;75;43457;-21
2021/06/22 18:21:02;;;;;;;1999.90;999.90;;;;;;;18.85;98.89;98332.75;3916583;75;44022;-23
2021/06/22 18:26:08;;;;;;;1999.90;999.90;;;;;;;18.87;99.39;98341.56;3911292;75;43719;-23
2021/06/22 18:31:14;;;;;;;1999.90;999.90;;;;;;;18.74;100.00;98331.55;3929033;75;43262;-23
2021/06/22 18:36:20;;;;;;;1999.90;999.90;;;;;;;18.65;100.00;98324.64;3909243;74;44033;-23
2021/06/22 18:41:27;;;;;;;1999.90;999.90;;;;;;;18.52;100.00;98330.17;3924959;74;43691;-23
2021/06/22 18:46:33;;;;;;;1999.90;999.90;;;;;;;18.59;100.00;98352.27;3915936;75;44538;-23
2021/06/22 18:51:42;;;;;;;1999.90;999.90;;;;;;;18.55;100.00;98351.55;3910940;75;44115;-23
2021/06/22 18:56:47;;;;;;;1999.90;999.90;;;;;;;18.47;100.00;98337.10;3917549;75;43686;-22
2021/06/22 19:07:05;;;;;;;1999.90;999.90;;;;;;;18.35;100.00;98337.45;3991483;73;27592;-22
2021/06/22 19:12:13;;;;;;;1999.90;999.90;;;;;;;17.97;100.00;98297.25;3900690;74;43386;-23
2021/06/22 19:17:19;;;;;;;1999.90;999.90;;;;;;;17.61;100.00;98265.83;3891975;74;44141;-23
2021/06/22 19:22:25;;;;;;;1999.90;999.90;;;;;;;17.76;100.00;98235.11;3909897;74;42878;-22
2021/06/22 19:27:31;;;;;;;1999.90;999.90;;;;;;;17.54;100.00;98259.88;3892388;75;44171;-22
2021/06/22 19:32:38;;;;;;;1999.90;999.90;;;;;;;17.27;100.00;98265.00;3906983;75;43366;-23
2021/06/22 19:37:48;;;;;;;1999.90;999.90;;;;;;;17.00;100.00;98264.95;3911296;74;42722;-23
2021/06/22 19:42:53;;;;;;;1999.90;999.90;;;;;;;16.94;100.00;98278.36;3913780;74;43491;-23
2021/06/22 19:47:59;;;;;;;1999.90;999.90;;;;;;;16.90;100.00;98281.13;3916975;74;44100;-23
2021/06/22 19:53:06;;;;;;;1999.90;999.90;;;;;;;16.79;100.00;98293.47;3897012;73;44083;-23
2021/06/22 19:58:14;;;;;;;1999.90;999.90;;;;;;;16.75;100.00;98305.80;3911037;75;42995;-23
2021/06/22 20:03:20;;;;;;;1999.90;999.90;;;;;;;16.64;100.00;98315.91;3910093;74;43379;-23
2021/06/22 20:08:29;;;;;;;1999.90;999.90;;;;;;;16.49;100.00;98325.58;3917864;74;42989;-23
2021/06/22 20:13:37;;;;;;;1999.90;999.90;;;;;;;16.45;100.00;98336.02;3917849;74;44113;-23
2021/06/22 20:18:45;;;;;;;1999.90;999.90;;;;;;;16.51;100.00;98340.32;3915842;74;44070;-23
2021/06/22 20:23:52;;;;;;;1999.90;999.90;;;;;;;16.54;100.00;98350.27;3910149;74;44430;-23
2021/06/22 20:28:59;;;;;;;1999.90;999.90;;;;;;;16.49;100.00;98365.00;3913484;74;43385;-23
2021/06/22 20:34:06;;;;;;;1999.90;999.90;;;;;;;16.56;100.00;98375.39;3919369;74;44074;-24
2021/06/22 20:39:12;;;;;;;1999.90;999.90;;;;;;;16.55;100.00;98358.75;3913676;74;43775;-23
2021/06/22 20:49:31;;;;;;;1999.90;999.90;;;;;;;16.37;100.00;98382.92;4011862;72;27548;-23
2021/06/22 20:54:37;;;;;;;1999.90;999.90;;;;;;;16.30;100.00;98376.08;3932879;75;44048;-21
2021/06/22 20:59:43;;;;;;;1999.90;999.90;;;;;;;16.25;100.00;98390.27;3928771;75;44023;-22
2021/06/22 21:04:50;;;;;;;1999.90;999.90;;;;;;;16.32;100.00;98406.09;3926045;75;43946;-22
2021/06/22 21:09:56;;;;;;;1999.90;999.90;;;;;;;16.41;100.00;98423.61;3928755;75;43473;-22
2021/06/22 21:15:02;;;;;;;1999.90;999.90;;;;;;;16.48;100.00;98417.71;3921650;75;43689;-22
2021/06/22 21:20:11;;;;;;;1999.90;999.90;;;;;;;16.52;100.00;98412.20;3923861;73;43471;-23
2021/06/22 21:25:17;;;;;;;1999.90;999.90;;;;;;;16.50;100.00;98408.84;3926650;74;44426;-23
2021/06/22 21:30:25;;;;;;;1999.90;999.90;;;;;;;16.54;100.00;98408.73;3908872;75;44284;-23
2021/06/22 21:35:33;;;;;;;1999.90;999.90;;;;;;;16.63;100.00;98419.80;3934115;75;44007;-23
2021/06/22 21:40:40;;;;;;;1999.90;999.90;;;;;;;16.63;100.00;98428.46;3931334;75;43710;-23
2021/06/22 21:45:47;;;;;;;1999.90;999.90;;;;;;;16.61;100.00;98430.54;3920238;75;44218;-23
2021/06/22 21:50:53;;;;;;;1999.90;999.90;;;;;;;16.59;100.00;98432.11;3916703;75;42895;-23
2021/06/22 21:55:59;;;;;;;1999.90;999.90;;;;;;;16.62;100.00;98429.00;3914438;74;43690;-22
2021/06/22 22:01:05;;;;;;;1999.90;999.90;;;;;;;16.58;100.00;98434.50;3911263;75;44481;-23
2021/06/22 22:06:12;;;;;;;1999.90;999.90;;;;;;;16.53;100.00;98439.69;3903866;75;43723;-23
2021/06/22 22:11:18;;;;;;;1999.90;999.90;;;;;;;16.43;100.00;98440.56;3905208;75;43050;-23
2021/06/22 22:16:24;;;;;;;1999.90;999.90;;;;;;;16.25;100.00;98437.84;3905174;75;43705;-23
2021/06/22 22:21:31;;;;;;;1999.90;999.90;;;;;;;16.17;100.00;98424.38;3905081;74;44099;-23
2021/06/22 22:26:38;;;;;;;1999.90;999.90;;;;;;;15.99;100.00;98439.30;3900860;74;43376;-22
2021/06/22 22:31:45;;;;;;;1999.90;999.90;;;;;;;15.88;100.00;98435.77;3914576;75;44009;-22
2021/06/22 22:36:51;;;;;;;1999.90;999.90;;;;;;;15.75;100.00;98432.89;3904022;75;42846;-22
2021/06/22 22:41:57;;;;;;;1999.90;999.90;;;;;;;15.66;100.00;98440.31;3909039;75;43373;-23
2021/06/22 22:47:04;;;;;;;1999.90;999.90;;;;;;;15.72;100.00;98434.95;3905953;75;42940;-22
2021/06/22 22:52:11;;;;;;;1999.90;999.90;;;;;;;15.73;100.00;98435.81;3902640;75;43284;-22
2021/06/22 22:57:17;;;;;;;1999.90;999.90;;;;;;;15.83;100.00;98434.96;3897433;74;44603;-23
2021/06/22 23:02:23;;;;;;;1999.90;999.90;;;;;;;15.90;100.00;98433.70;3904807;75;44081;-22
2021/06/22 23:07:30;;;;;;;1999.90;999.90;;;;;;;15.92;100.00;98428.05;3902213;75;43198;-22
2021/06/22 23:12:36;;;;;;;1999.90;999.90;;;;;;;15.96;100.00;98444.30;3900337;75;44140;-23
2021/06/22 23:17:42;;;;;;;1999.90;999.90;;;;;;;15.92;100.00;98445.21;3906605;75;42695;-23
2021/06/22 23:22:49;;;;;;;1999.90;999.90;;;;;;;15.91;100.00;98451.68;3908610;75;43727;-22
2021/06/22 23:27:55;;;;;;;1999.90;999.90;;;;;;;15.90;100.00;98453.22;3890006;75;43484;-22